TimeEST,TemperatureF,Dew PointF,Humidity,Sea Level PressureIn,VisibilityMPH,Wind Direction,Wind SpeedMPH,Gust SpeedMPH,PrecipitationIn,Events,Conditions,WindDirDegrees,DateUTC
12:16 AM,39.6,37.4,92,30.12,1.5,South,8.1,-,N/A,,Overcast,190,2012-11-21 05:16:00
12:36 AM,39.2,37.0,92,30.11,1.0,SSW,11.5,-,N/A,,Overcast,200,2012-11-21 05:36:00
12:55 AM,39.2,37.0,92,30.11,0.8,SSW,11.5,-,N/A,,Overcast,200,2012-11-21 05:55:00
1:16 AM,39.2,37.0,92,30.09,0.8,SSW,12.7,-,N/A,,Overcast,200,2012-11-21 06:16:00
1:36 AM,39.2,37.0,92,30.09,0.8,SSW,10.4,-,N/A,,Overcast,210,2012-11-21 06:36:00
1:55 AM,39.2,37.0,92,30.09,0.5,SSW,9.2,-,N/A,Fog,Fog,210,2012-11-21 06:55:00
2:16 AM,39.2,37.0,92,30.09,0.8,SSW,10.4,16.1,N/A,,Overcast,210,2012-11-21 07:16:00
2:36 AM,39.2,37.4,93,30.09,0.8,SSW,11.5,-,N/A,,Overcast,210,2012-11-21 07:36:00
2:56 AM,39.4,37.6,93,30.09,0.8,SSW,10.4,-,N/A,,Overcast,210,2012-11-21 07:56:00
3:16 AM,39.6,37.8,93,30.09,0.5,SSW,11.5,-,N/A,Fog,Fog,200,2012-11-21 08:16:00
3:35 AM,39.7,37.9,93,30.09,0.5,SSW,9.2,-,N/A,Fog,Fog,200,2012-11-21 08:35:00
3:56 AM,40.1,37.9,92,30.08,0.5,SSW,11.5,16.1,N/A,Fog,Fog,200,2012-11-21 08:56:00
4:16 AM,40.1,38.3,93,30.08,0.5,SSW,9.2,-,N/A,Fog,Fog,200,2012-11-21 09:16:00
4:35 AM,40.1,38.3,93,30.08,0.8,SSW,11.5,-,N/A,,Overcast,210,2012-11-21 09:35:00
4:56 AM,40.1,38.3,93,30.08,0.8,SSW,11.5,-,N/A,,Overcast,200,2012-11-21 09:56:00
5:16 AM,40.1,38.3,93,30.08,0.8,SSW,13.8,-,N/A,,Overcast,200,2012-11-21 10:16:00
5:35 AM,40.1,38.3,93,30.08,0.8,SSW,11.5,-,N/A,,Overcast,210,2012-11-21 10:35:00
5:56 AM,41.0,39.2,93,30.08,0.8,SSW,12.7,-,N/A,,Overcast,200,2012-11-21 10:56:00
6:50 AM,39.2,37.4,93,30.07,2.0,SSW,11.5,-,N/A,,Overcast,210,2012-11-21 11:50:00
7:50 AM,39.2,37.4,93,30.06,1.0,SSW,12.7,-,N/A,,Overcast,200,2012-11-21 12:50:00
8:55 AM,39.2,37.4,93,30.06,1.0,SSW,12.7,-,N/A,,Overcast,210,2012-11-21 13:55:00
9:50 AM,39.2,37.4,93,30.05,1.2,SSW,15.0,-,N/A,,Overcast,200,2012-11-21 14:50:00
10:50 AM,42.8,39.2,87,30.04,3.0,South,15.0,20.7,N/A,,Overcast,190,2012-11-21 15:50:00
11:50 AM,44.6,39.2,81,30.01,4.0,SSW,16.1,-,N/A,,Haze,200,2012-11-21 16:50:00
12:50 PM,48.2,39.2,71,29.97,5.0,SSW,17.3,23.0,N/A,,Haze,200,2012-11-21 17:50:00
1:50 PM,48.2,39.2,71,29.93,5.0,South,18.4,23.0,N/A,,Haze,190,2012-11-21 18:50:00
2:50 PM,51.8,37.4,58,29.91,10.0,South,13.8,19.6,N/A,,Clear,190,2012-11-21 19:50:00
3:50 PM,50.0,35.6,58,29.91,10.0,SSW,18.4,23.0,N/A,,Clear,200,2012-11-21 20:50:00
4:55 PM,48.2,37.4,66,29.91,10.0,SSW,11.5,-,N/A,,Clear,210,2012-11-21 21:55:00
5:55 PM,46.4,37.4,71,29.91,10.0,South,8.1,-,N/A,,Clear,190,2012-11-21 22:55:00
6:50 PM,46.4,37.4,71,29.91,10.0,SSW,9.2,-,N/A,,Clear,200,2012-11-21 23:50:00
7:55 PM,42.8,37.4,81,29.91,10.0,South,5.8,-,N/A,,Clear,180,2012-11-22 00:55:00
8:50 PM,42.8,37.4,81,29.90,5.0,SSW,11.5,-,N/A,,Haze,200,2012-11-22 01:50:00
9:50 PM,42.8,39.2,87,29.89,3.0,South,11.5,-,N/A,,Clear,190,2012-11-22 02:50:00
10:16 PM,41.0,38.3,90,29.89,2.5,SSW,9.2,-,N/A,,Clear,200,2012-11-22 03:16:00
10:36 PM,40.6,37.9,90,29.88,2.5,South,9.2,-,N/A,,Clear,190,2012-11-22 03:36:00
10:56 PM,40.8,38.3,91,29.87,2.5,South,11.5,-,N/A,,Clear,190,2012-11-22 03:56:00
11:16 PM,40.6,37.9,90,29.86,2.5,South,9.2,-,N/A,,Clear,190,2012-11-22 04:16:00
11:36 PM,40.5,37.9,91,29.86,2.0,SSW,8.1,-,N/A,,Clear,200,2012-11-22 04:36:00
11:56 PM,40.1,37.6,91,29.86,2.0,SSW,9.2,-,N/A,,Clear,200,2012-11-22 04:56:00